Terminal Aerodrome Forecast
Issued by NWS

Home | Current Version | Previous Version | Text Only | Print | Product List | Glossary Off
Versions: 1 2 3 4 5 6 7 8 9 10 11 12 13 14 15

000
FTUS43 KTOP 281100
TAFFOE
TAF
KFOE 281126Z 2812/2912 14002KT 3SM BR SKC
      TEMPO 2812/2813 3/4SM BR
     FM281330 17006KT P6SM SCT060
     FM291100 14002KT 5SM MIFG SKC=

USA.gov is the U.S. government's official web portal to all federal, state and local government web resources and services.